sensor_id;sensor_type;location;lat;lon;timestamp;P1;durP1;ratioP1;P2;durP2;ratioP2
21175;SDS011;10746;50.178;8.186;2022-10-04T00:00:42;15.40;;;7.10;;
21175;SDS011;10746;50.178;8.186;2022-10-04T00:03:10;10.07;;;6.73;;
21175;SDS011;10746;50.178;8.186;2022-10-04T00:05:42;15.43;;;6.67;;
21175;SDS011;10746;50.178;8.186;2022-10-04T00:08:19;12.33;;;6.97;;
21175;SDS011;10746;50.178;8.186;2022-10-04T00:10:59;15.20;;;6.57;;
21175;SDS011;10746;50.178;8.186;2022-10-04T00:13:29;15.17;;;7.13;;
21175;SDS011;10746;50.178;8.186;2022-10-04T00:15:58;10.67;;;7.20;;
21175;SDS011;10746;50.178;8.186;2022-10-04T00:18:27;18.07;;;6.87;;
21175;SDS011;10746;50.178;8.186;2022-10-04T00:20:58;13.57;;;7.20;;
21175;SDS011;10746;50.178;8.186;2022-10-04T00:23:28;17.80;;;7.37;;
21175;SDS011;10746;50.178;8.186;2022-10-04T00:26:09;16.37;;;7.00;;
21175;SDS011;10746;50.178;8.186;2022-10-04T00:28:43;18.00;;;7.20;;
21175;SDS011;10746;50.178;8.186;2022-10-04T00:31:14;16.73;;;8.10;;
21175;SDS011;10746;50.178;8.186;2022-10-04T00:33:47;17.13;;;7.67;;
21175;SDS011;10746;50.178;8.186;2022-10-04T00:36:36;16.93;;;8.43;;
21175;SDS011;10746;50.178;8.186;2022-10-04T00:39:13;19.00;;;8.03;;
21175;SDS011;10746;50.178;8.186;2022-10-04T00:41:49;14.63;;;7.60;;
21175;SDS011;10746;50.178;8.186;2022-10-04T00:44:25;13.90;;;7.47;;
21175;SDS011;10746;50.178;8.186;2022-10-04T00:46:57;16.07;;;7.83;;
21175;SDS011;10746;50.178;8.186;2022-10-04T00:49:27;24.73;;;8.53;;
21175;SDS011;10746;50.178;8.186;2022-10-04T00:51:58;15.10;;;7.60;;
21175;SDS011;10746;50.178;8.186;2022-10-04T00:54:29;15.67;;;7.10;;
21175;SDS011;10746;50.178;8.186;2022-10-04T00:57:00;15.03;;;7.67;;
21175;SDS011;10746;50.178;8.186;2022-10-04T00:59:31;18.10;;;7.50;;
21175;SDS011;10746;50.178;8.186;2022-10-04T01:02:04;15.47;;;7.70;;
21175;SDS011;10746;50.178;8.186;2022-10-04T01:04:40;16.33;;;8.13;;
21175;SDS011;10746;50.178;8.186;2022-10-04T01:07:10;16.50;;;7.87;;
21175;SDS011;10746;50.178;8.186;2022-10-04T01:09:44;18.73;;;7.87;;
21175;SDS011;10746;50.178;8.186;2022-10-04T01:12:15;12.67;;;7.53;;
21175;SDS011;10746;50.178;8.186;2022-10-04T01:14:55;15.97;;;7.73;;
21175;SDS011;10746;50.178;8.186;2022-10-04T01:17:31;14.97;;;7.13;;
21175;SDS011;10746;50.178;8.186;2022-10-04T01:19:57;14.17;;;7.17;;
21175;SDS011;10746;50.178;8.186;2022-10-04T01:22:34;15.03;;;7.30;;
21175;SDS011;10746;50.178;8.186;2022-10-04T01:25:03;13.07;;;6.23;;
21175;SDS011;10746;50.178;8.186;2022-10-04T01:27:31;18.10;;;6.97;;
21175;SDS011;10746;50.178;8.186;2022-10-04T01:30:01;12.00;;;7.10;;
21175;SDS011;10746;50.178;8.186;2022-10-04T01:32:31;14.13;;;7.13;;
21175;SDS011;10746;50.178;8.186;2022-10-04T01:34:58;17.17;;;6.43;;
21175;SDS011;10746;50.178;8.186;2022-10-04T01:37:25;12.63;;;6.53;;
21175;SDS011;10746;50.178;8.186;2022-10-04T01:39:53;12.57;;;6.63;;
21175;SDS011;10746;50.178;8.186;2022-10-04T01:42:22;14.20;;;6.67;;
21175;SDS011;10746;50.178;8.186;2022-10-04T01:44:55;10.17;;;5.93;;
21175;SDS011;10746;50.178;8.186;2022-10-04T01:47:27;53.20;;;8.40;;
21175;SDS011;10746;50.178;8.186;2022-10-04T01:50:00;13.60;;;7.07;;
21175;SDS011;10746;50.178;8.186;2022-10-04T01:52:32;16.10;;;7.40;;
21175;SDS011;10746;50.178;8.186;2022-10-04T01:55:04;34.87;;;9.07;;
21175;SDS011;10746;50.178;8.186;2022-10-04T01:57:35;21.20;;;7.80;;
21175;SDS011;10746;50.178;8.186;2022-10-04T02:00:07;17.83;;;7.23;;
21175;SDS011;10746;50.178;8.186;2022-10-04T02:02:38;17.27;;;7.20;;
21175;SDS011;10746;50.178;8.186;2022-10-04T02:05:09;17.40;;;8.07;;
21175;SDS011;10746;50.178;8.186;2022-10-04T02:07:38;24.00;;;7.90;;
21175;SDS011;10746;50.178;8.186;2022-10-04T02:10:09;23.90;;;7.77;;
21175;SDS011;10746;50.178;8.186;2022-10-04T02:12:42;19.40;;;8.13;;
21175;SDS011;10746;50.178;8.186;2022-10-04T02:15:10;14.17;;;7.23;;
21175;SDS011;10746;50.178;8.186;2022-10-04T02:17:38;17.00;;;8.20;;
21175;SDS011;10746;50.178;8.186;2022-10-04T02:20:08;13.00;;;7.33;;
21175;SDS011;10746;50.178;8.186;2022-10-04T02:22:39;15.73;;;7.87;;
21175;SDS011;10746;50.178;8.186;2022-10-04T02:25:10;12.50;;;7.30;;
21175;SDS011;10746;50.178;8.186;2022-10-04T02:27:38;10.90;;;7.03;;
21175;SDS011;10746;50.178;8.186;2022-10-04T02:30:06;15.30;;;6.67;;
21175;SDS011;10746;50.178;8.186;2022-10-04T02:32:35;10.50;;;6.63;;
21175;SDS011;10746;50.178;8.186;2022-10-04T02:35:20;9.53;;;6.17;;
21175;SDS011;10746;50.178;8.186;2022-10-04T02:37:48;11.57;;;6.47;;
21175;SDS011;10746;50.178;8.186;2022-10-04T02:40:22;10.87;;;6.27;;
21175;SDS011;10746;50.178;8.186;2022-10-04T02:42:56;18.93;;;7.10;;
21175;SDS011;10746;50.178;8.186;2022-10-04T02:45:26;14.83;;;6.80;;
21175;SDS011;10746;50.178;8.186;2022-10-04T02:47:59;14.33;;;6.60;;
21175;SDS011;10746;50.178;8.186;2022-10-04T02:50:32;17.63;;;8.13;;
21175;SDS011;10746;50.178;8.186;2022-10-04T02:53:08;12.00;;;7.33;;
21175;SDS011;10746;50.178;8.186;2022-10-04T02:55:40;11.07;;;7.13;;
21175;SDS011;10746;50.178;8.186;2022-10-04T02:58:09;15.47;;;7.80;;
21175;SDS011;10746;50.178;8.186;2022-10-04T03:00:45;12.50;;;6.70;;
21175;SDS011;10746;50.178;8.186;2022-10-04T03:03:15;13.63;;;7.83;;
21175;SDS011;10746;50.178;8.186;2022-10-04T03:05:52;13.97;;;6.50;;
21175;SDS011;10746;50.178;8.186;2022-10-04T03:08:29;15.30;;;7.77;;
21175;SDS011;10746;50.178;8.186;2022-10-04T03:11:00;15.70;;;8.80;;
21175;SDS011;10746;50.178;8.186;2022-10-04T03:13:29;12.17;;;7.17;;
21175;SDS011;10746;50.178;8.186;2022-10-04T03:15:56;22.13;;;7.90;;
21175;SDS011;10746;50.178;8.186;2022-10-04T03:18:23;15.43;;;7.53;;
21175;SDS011;10746;50.178;8.186;2022-10-04T03:20:50;15.93;;;7.37;;
21175;SDS011;10746;50.178;8.186;2022-10-04T03:23:17;17.47;;;7.40;;
21175;SDS011;10746;50.178;8.186;2022-10-04T03:25:48;14.33;;;6.93;;
21175;SDS011;10746;50.178;8.186;2022-10-04T03:28:19;11.10;;;6.37;;
21175;SDS011;10746;50.178;8.186;2022-10-04T03:30:46;14.93;;;6.50;;
21175;SDS011;10746;50.178;8.186;2022-10-04T03:33:19;12.73;;;7.00;;
21175;SDS011;10746;50.178;8.186;2022-10-04T03:35:48;14.73;;;6.90;;
21175;SDS011;10746;50.178;8.186;2022-10-04T03:38:19;15.77;;;6.73;;
21175;SDS011;10746;50.178;8.186;2022-10-04T03:40:49;12.43;;;6.20;;
21175;SDS011;10746;50.178;8.186;2022-10-04T03:43:21;11.87;;;6.60;;
21175;SDS011;10746;50.178;8.186;2022-10-04T03:45:51;15.93;;;6.80;;
21175;SDS011;10746;50.178;8.186;2022-10-04T03:48:28;16.70;;;6.83;;
21175;SDS011;10746;50.178;8.186;2022-10-04T03:50:57;17.30;;;7.23;;
21175;SDS011;10746;50.178;8.186;2022-10-04T03:53:29;15.23;;;6.93;;
21175;SDS011;10746;50.178;8.186;2022-10-04T03:56:02;12.87;;;6.90;;
21175;SDS011;10746;50.178;8.186;2022-10-04T03:58:37;14.87;;;7.07;;
21175;SDS011;10746;50.178;8.186;2022-10-04T04:01:10;13.93;;;6.67;;
21175;SDS011;10746;50.178;8.186;2022-10-04T04:03:45;103.27;;;10.87;;
21175;SDS011;10746;50.178;8.186;2022-10-04T04:06:20;97.37;;;10.53;;
21175;SDS011;10746;50.178;8.186;2022-10-04T04:08:49;20.80;;;7.00;;
21175;SDS011;10746;50.178;8.186;2022-10-04T04:11:20;17.47;;;6.17;;
21175;SDS011;10746;50.178;8.186;2022-10-04T04:13:53;33.77;;;7.93;;
21175;SDS011;10746;50.178;8.186;2022-10-04T04:16:27;75.60;;;11.17;;
21175;SDS011;10746;50.178;8.186;2022-10-04T04:18:54;40.67;;;7.10;;
21175;SDS011;10746;50.178;8.186;2022-10-04T04:21:25;63.97;;;8.77;;
21175;SDS011;10746;50.178;8.186;2022-10-04T04:23:54;31.27;;;7.80;;
21175;SDS011;10746;50.178;8.186;2022-10-04T04:26:25;12.30;;;6.73;;
21175;SDS011;10746;50.178;8.186;2022-10-04T04:29:03;11.00;;;6.63;;
21175;SDS011;10746;50.178;8.186;2022-10-04T04:31:32;11.03;;;6.70;;
21175;SDS011;10746;50.178;8.186;2022-10-04T04:34:04;10.93;;;7.03;;
21175;SDS011;10746;50.178;8.186;2022-10-04T04:36:40;9.33;;;6.47;;
21175;SDS011;10746;50.178;8.186;2022-10-04T04:39:08;10.73;;;6.13;;
21175;SDS011;10746;50.178;8.186;2022-10-04T04:41:56;13.47;;;7.30;;
21175;SDS011;10746;50.178;8.186;2022-10-04T04:44:25;10.33;;;6.47;;
21175;SDS011;10746;50.178;8.186;2022-10-04T04:46:52;13.83;;;6.43;;
21175;SDS011;10746;50.178;8.186;2022-10-04T04:49:24;13.33;;;6.67;;
21175;SDS011;10746;50.178;8.186;2022-10-04T04:51:54;10.83;;;6.27;;
21175;SDS011;10746;50.178;8.186;2022-10-04T04:54:22;14.20;;;6.77;;
21175;SDS011;10746;50.178;8.186;2022-10-04T04:56:52;13.47;;;6.57;;
21175;SDS011;10746;50.178;8.186;2022-10-04T04:59:21;11.80;;;6.30;;
21175;SDS011;10746;50.178;8.186;2022-10-04T05:01:52;13.43;;;7.10;;
21175;SDS011;10746;50.178;8.186;2022-10-04T05:04:19;11.23;;;6.47;;
21175;SDS011;10746;50.178;8.186;2022-10-04T05:06:48;14.83;;;7.30;;
21175;SDS011;10746;50.178;8.186;2022-10-04T05:09:27;11.63;;;6.70;;
21175;SDS011;10746;50.178;8.186;2022-10-04T05:11:56;12.57;;;6.77;;
21175;SDS011;10746;50.178;8.186;2022-10-04T05:14:27;12.23;;;7.07;;
21175;SDS011;10746;50.178;8.186;2022-10-04T05:16:56;14.23;;;7.47;;
21175;SDS011;10746;50.178;8.186;2022-10-04T05:19:24;14.17;;;8.13;;
21175;SDS011;10746;50.178;8.186;2022-10-04T05:21:54;12.80;;;7.87;;
21175;SDS011;10746;50.178;8.186;2022-10-04T05:24:23;18.53;;;7.77;;
21175;SDS011;10746;50.178;8.186;2022-10-04T05:26:56;22.10;;;7.80;;
21175;SDS011;10746;50.178;8.186;2022-10-04T05:29:26;17.83;;;8.80;;
21175;SDS011;10746;50.178;8.186;2022-10-04T05:31:59;21.83;;;8.97;;
21175;SDS011;10746;50.178;8.186;2022-10-04T05:34:35;18.97;;;9.27;;
21175;SDS011;10746;50.178;8.186;2022-10-04T05:37:17;17.60;;;8.80;;
21175;SDS011;10746;50.178;8.186;2022-10-04T05:40:04;17.37;;;8.63;;
21175;SDS011;10746;50.178;8.186;2022-10-04T05:42:42;17.77;;;8.67;;
21175;SDS011;10746;50.178;8.186;2022-10-04T05:45:15;18.10;;;8.90;;
21175;SDS011;10746;50.178;8.186;2022-10-04T05:47:45;17.87;;;8.73;;
21175;SDS011;10746;50.178;8.186;2022-10-04T05:50:15;18.30;;;9.13;;
21175;SDS011;10746;50.178;8.186;2022-10-04T05:52:45;18.47;;;9.17;;
21175;SDS011;10746;50.178;8.186;2022-10-04T05:55:16;25.97;;;11.40;;
21175;SDS011;10746;50.178;8.186;2022-10-04T05:58:00;22.47;;;10.97;;
21175;SDS011;10746;50.178;8.186;2022-10-04T06:00:44;21.60;;;10.20;;
21175;SDS011;10746;50.178;8.186;2022-10-04T06:03:35;23.47;;;11.87;;
21175;SDS011;10746;50.178;8.186;2022-10-04T06:06:12;33.07;;;13.57;;
21175;SDS011;10746;50.178;8.186;2022-10-04T06:08:47;26.73;;;12.53;;
21175;SDS011;10746;50.178;8.186;2022-10-04T06:11:26;26.03;;;12.07;;
21175;SDS011;10746;50.178;8.186;2022-10-04T06:14:09;26.10;;;11.20;;
21175;SDS011;10746;50.178;8.186;2022-10-04T06:16:53;23.97;;;10.13;;
21175;SDS011;10746;50.178;8.186;2022-10-04T06:19:52;22.00;;;9.97;;
21175;SDS011;10746;50.178;8.186;2022-10-04T06:22:40;24.80;;;11.23;;
21175;SDS011;10746;50.178;8.186;2022-10-04T06:25:09;26.63;;;10.33;;
21175;SDS011;10746;50.178;8.186;2022-10-04T06:27:40;25.77;;;10.43;;
21175;SDS011;10746;50.178;8.186;2022-10-04T06:30:15;22.90;;;10.20;;
21175;SDS011;10746;50.178;8.186;2022-10-04T06:32:47;22.43;;;10.40;;
21175;SDS011;10746;50.178;8.186;2022-10-04T06:35:41;23.73;;;9.83;;
21175;SDS011;10746;50.178;8.186;2022-10-04T06:38:35;21.47;;;10.37;;
21175;SDS011;10746;50.178;8.186;2022-10-04T06:41:16;25.63;;;10.23;;
21175;SDS011;10746;50.178;8.186;2022-10-04T06:44:11;21.90;;;9.80;;
21175;SDS011;10746;50.178;8.186;2022-10-04T06:47:03;25.63;;;9.87;;
21175;SDS011;10746;50.178;8.186;2022-10-04T06:49:41;20.80;;;10.03;;
21175;SDS011;10746;50.178;8.186;2022-10-04T06:52:22;23.03;;;10.00;;
21175;SDS011;10746;50.178;8.186;2022-10-04T06:58:04;28.47;;;10.13;;
21175;SDS011;10746;50.178;8.186;2022-10-04T07:00:50;22.70;;;9.30;;
21175;SDS011;10746;50.178;8.186;2022-10-04T07:03:23;22.37;;;9.50;;
21175;SDS011;10746;50.178;8.186;2022-10-04T07:05:54;26.40;;;9.30;;
21175;SDS011;10746;50.178;8.186;2022-10-04T07:08:27;23.03;;;9.93;;
21175;SDS011;10746;50.178;8.186;2022-10-04T07:11:04;20.53;;;9.70;;
21175;SDS011;10746;50.178;8.186;2022-10-04T07:13:41;19.70;;;9.37;;
21175;SDS011;10746;50.178;8.186;2022-10-04T07:16:21;15.13;;;7.67;;
21175;SDS011;10746;50.178;8.186;2022-10-04T07:18:55;13.63;;;7.27;;
21175;SDS011;10746;50.178;8.186;2022-10-04T07:21:26;13.30;;;7.07;;
21175;SDS011;10746;50.178;8.186;2022-10-04T07:24:03;15.63;;;6.60;;
21175;SDS011;10746;50.178;8.186;2022-10-04T07:26:40;11.63;;;6.80;;
21175;SDS011;10746;50.178;8.186;2022-10-04T07:29:11;10.80;;;6.30;;
21175;SDS011;10746;50.178;8.186;2022-10-04T07:31:44;14.87;;;6.80;;
21175;SDS011;10746;50.178;8.186;2022-10-04T07:34:13;13.10;;;7.40;;
21175;SDS011;10746;50.178;8.186;2022-10-04T07:36:47;16.30;;;7.10;;
21175;SDS011;10746;50.178;8.186;2022-10-04T07:39:18;14.97;;;7.40;;
21175;SDS011;10746;50.178;8.186;2022-10-04T07:41:49;15.03;;;7.77;;
21175;SDS011;10746;50.178;8.186;2022-10-04T07:44:21;16.13;;;7.63;;
21175;SDS011;10746;50.178;8.186;2022-10-04T07:46:57;15.67;;;7.67;;
21175;SDS011;10746;50.178;8.186;2022-10-04T07:49:27;12.15;;;7.25;;
21175;SDS011;10746;50.178;8.186;2022-10-04T07:52:01;13.27;;;7.43;;
21175;SDS011;10746;50.178;8.186;2022-10-04T07:54:37;11.52;;;6.18;;
21175;SDS011;10746;50.178;8.186;2022-10-04T07:57:10;9.18;;;5.75;;
21175;SDS011;10746;50.178;8.186;2022-10-04T07:59:45;8.05;;;5.72;;
21175;SDS011;10746;50.178;8.186;2022-10-04T08:02:20;11.82;;;6.80;;
21175;SDS011;10746;50.178;8.186;2022-10-04T08:04:56;9.18;;;5.07;;
21175;SDS011;10746;50.178;8.186;2022-10-04T08:07:37;9.20;;;5.43;;
21175;SDS011;10746;50.178;8.186;2022-10-04T08:10:16;12.48;;;5.13;;
21175;SDS011;10746;50.178;8.186;2022-10-04T08:12:51;10.27;;;5.43;;
21175;SDS011;10746;50.178;8.186;2022-10-04T08:15:27;12.80;;;4.60;;
21175;SDS011;10746;50.178;8.186;2022-10-04T08:18:00;12.38;;;4.97;;
21175;SDS011;10746;50.178;8.186;2022-10-04T08:20:35;11.90;;;4.20;;
21175;SDS011;10746;50.178;8.186;2022-10-04T08:23:15;10.85;;;4.18;;
21175;SDS011;10746;50.178;8.186;2022-10-04T08:26:10;8.45;;;4.20;;
21175;SDS011;10746;50.178;8.186;2022-10-04T08:28:48;13.27;;;4.07;;
21175;SDS011;10746;50.178;8.186;2022-10-04T08:31:45;9.73;;;3.70;;
21175;SDS011;10746;50.178;8.186;2022-10-04T08:34:25;7.20;;;3.17;;
21175;SDS011;10746;50.178;8.186;2022-10-04T08:37:00;6.80;;;3.30;;
21175;SDS011;10746;50.178;8.186;2022-10-04T08:39:37;5.38;;;3.03;;
21175;SDS011;10746;50.178;8.186;2022-10-04T08:51:43;7.30;;;2.88;;
21175;SDS011;10746;50.178;8.186;2022-10-04T08:54:49;5.85;;;3.08;;
21175;SDS011;10746;50.178;8.186;2022-10-04T09:00:58;5.95;;;3.47;;
21175;SDS011;10746;50.178;8.186;2022-10-04T09:06:50;5.70;;;2.50;;
21175;SDS011;10746;50.178;8.186;2022-10-04T09:09:32;8.05;;;2.88;;
21175;SDS011;10746;50.178;8.186;2022-10-04T09:15:19;5.03;;;2.58;;
21175;SDS011;10746;50.178;8.186;2022-10-04T09:18:16;7.30;;;2.42;;
21175;SDS011;10746;50.178;8.186;2022-10-04T09:20:50;10.75;;;3.15;;
21175;SDS011;10746;50.178;8.186;2022-10-04T09:26:18;6.28;;;2.70;;
21175;SDS011;10746;50.178;8.186;2022-10-04T09:29:05;7.30;;;2.80;;
21175;SDS011;10746;50.178;8.186;2022-10-04T09:31:47;6.57;;;2.60;;
21175;SDS011;10746;50.178;8.186;2022-10-04T09:34:32;4.43;;;2.30;;
21175;SDS011;10746;50.178;8.186;2022-10-04T09:37:15;5.63;;;2.30;;
21175;SDS011;10746;50.178;8.186;2022-10-04T09:46:26;6.68;;;2.63;;
21175;SDS011;10746;50.178;8.186;2022-10-04T09:49:07;7.13;;;2.97;;
21175;SDS011;10746;50.178;8.186;2022-10-04T09:51:58;5.85;;;3.13;;
21175;SDS011;10746;50.178;8.186;2022-10-04T09:57:31;5.47;;;3.13;;
21175;SDS011;10746;50.178;8.186;2022-10-04T10:00:14;7.53;;;2.97;;
21175;SDS011;10746;50.178;8.186;2022-10-04T10:02:54;12.30;;;2.92;;
21175;SDS011;10746;50.178;8.186;2022-10-04T10:05:48;5.80;;;2.90;;
21175;SDS011;10746;50.178;8.186;2022-10-04T10:08:44;10.52;;;3.30;;
21175;SDS011;10746;50.178;8.186;2022-10-04T10:11:23;7.13;;;3.17;;
21175;SDS011;10746;50.178;8.186;2022-10-04T10:14:19;7.03;;;2.72;;
21175;SDS011;10746;50.178;8.186;2022-10-04T10:17:06;6.95;;;3.10;;
21175;SDS011;10746;50.178;8.186;2022-10-04T10:19:45;7.50;;;3.20;;
21175;SDS011;10746;50.178;8.186;2022-10-04T10:22:32;6.80;;;3.38;;
21175;SDS011;10746;50.178;8.186;2022-10-04T10:25:27;8.48;;;3.25;;
21175;SDS011;10746;50.178;8.186;2022-10-04T10:28:09;7.57;;;2.83;;
21175;SDS011;10746;50.178;8.186;2022-10-04T10:31:14;4.90;;;2.75;;
21175;SDS011;10746;50.178;8.186;2022-10-04T10:37:07;7.70;;;2.67;;
21175;SDS011;10746;50.178;8.186;2022-10-04T10:42:38;7.70;;;3.13;;
21175;SDS011;10746;50.178;8.186;2022-10-04T10:48:13;5.03;;;2.78;;
21175;SDS011;10746;50.178;8.186;2022-10-04T10:50:50;5.25;;;2.80;;
21175;SDS011;10746;50.178;8.186;2022-10-04T10:56:37;8.13;;;3.20;;
21175;SDS011;10746;50.178;8.186;2022-10-04T11:08:44;8.80;;;3.38;;
21175;SDS011;10746;50.178;8.186;2022-10-04T11:11:40;9.73;;;3.17;;
21175;SDS011;10746;50.178;8.186;2022-10-04T11:14:34;5.03;;;3.28;;
21175;SDS011;10746;50.178;8.186;2022-10-04T11:17:31;5.00;;;3.47;;
21175;SDS011;10746;50.178;8.186;2022-10-04T11:20:29;6.88;;;3.35;;
21175;SDS011;10746;50.178;8.186;2022-10-04T11:26:30;7.65;;;3.58;;
21175;SDS011;10746;50.178;8.186;2022-10-04T11:29:23;6.72;;;3.60;;
21175;SDS011;10746;50.178;8.186;2022-10-04T11:32:23;8.32;;;4.38;;
21175;SDS011;10746;50.178;8.186;2022-10-04T11:38:33;7.68;;;3.78;;
21175;SDS011;10746;50.178;8.186;2022-10-04T11:41:16;9.90;;;4.00;;
21175;SDS011;10746;50.178;8.186;2022-10-04T11:47:01;8.73;;;3.83;;
21175;SDS011;10746;50.178;8.186;2022-10-04T11:49:40;7.78;;;4.28;;
21175;SDS011;10746;50.178;8.186;2022-10-04T11:55:26;7.35;;;3.83;;
21175;SDS011;10746;50.178;8.186;2022-10-04T11:58:19;7.35;;;4.00;;
21175;SDS011;10746;50.178;8.186;2022-10-04T12:01:06;8.25;;;4.30;;
21175;SDS011;10746;50.178;8.186;2022-10-04T12:03:54;10.55;;;4.93;;
21175;SDS011;10746;50.178;8.186;2022-10-04T12:07:03;12.15;;;4.85;;
21175;SDS011;10746;50.178;8.186;2022-10-04T12:09:52;10.43;;;4.90;;
21175;SDS011;10746;50.178;8.186;2022-10-04T12:12:33;10.52;;;4.93;;
21175;SDS011;10746;50.178;8.186;2022-10-04T12:15:17;9.00;;;4.25;;
21175;SDS011;10746;50.178;8.186;2022-10-04T12:24:31;11.50;;;4.78;;
21175;SDS011;10746;50.178;8.186;2022-10-04T12:27:22;8.68;;;4.50;;
21175;SDS011;10746;50.178;8.186;2022-10-04T12:30:17;9.70;;;4.75;;
21175;SDS011;10746;50.178;8.186;2022-10-04T12:32:58;8.15;;;4.43;;
21175;SDS011;10746;50.178;8.186;2022-10-04T12:35:42;11.32;;;4.47;;
21175;SDS011;10746;50.178;8.186;2022-10-04T12:41:17;9.20;;;4.47;;
21175;SDS011;10746;50.178;8.186;2022-10-04T12:43:56;8.30;;;4.50;;
21175;SDS011;10746;50.178;8.186;2022-10-04T12:46:35;11.50;;;4.65;;
21175;SDS011;10746;50.178;8.186;2022-10-04T12:49:13;6.88;;;4.10;;
21175;SDS011;10746;50.178;8.186;2022-10-04T12:51:48;11.30;;;4.18;;
21175;SDS011;10746;50.178;8.186;2022-10-04T12:54:28;6.68;;;4.30;;
21175;SDS011;10746;50.178;8.186;2022-10-04T12:57:03;9.32;;;4.32;;
21175;SDS011;10746;50.178;8.186;2022-10-04T12:59:44;9.65;;;4.40;;
21175;SDS011;10746;50.178;8.186;2022-10-04T13:02:29;8.32;;;4.65;;
21175;SDS011;10746;50.178;8.186;2022-10-04T13:05:12;8.38;;;4.18;;
21175;SDS011;10746;50.178;8.186;2022-10-04T13:07:55;8.20;;;4.47;;
21175;SDS011;10746;50.178;8.186;2022-10-04T13:10:39;9.40;;;4.85;;
21175;SDS011;10746;50.178;8.186;2022-10-04T13:13:20;9.68;;;4.53;;
21175;SDS011;10746;50.178;8.186;2022-10-04T13:16:04;14.23;;;5.20;;
21175;SDS011;10746;50.178;8.186;2022-10-04T13:18:39;12.13;;;4.68;;
21175;SDS011;10746;50.178;8.186;2022-10-04T13:21:10;10.18;;;5.60;;
21175;SDS011;10746;50.178;8.186;2022-10-04T13:23:52;8.95;;;4.85;;
21175;SDS011;10746;50.178;8.186;2022-10-04T13:26:29;7.30;;;4.25;;
21175;SDS011;10746;50.178;8.186;2022-10-04T13:29:12;11.30;;;4.88;;
21175;SDS011;10746;50.178;8.186;2022-10-04T13:31:47;8.88;;;4.53;;
21175;SDS011;10746;50.178;8.186;2022-10-04T13:34:20;9.18;;;4.10;;
21175;SDS011;10746;50.178;8.186;2022-10-04T13:37:03;7.85;;;4.50;;
21175;SDS011;10746;50.178;8.186;2022-10-04T13:39:43;7.88;;;4.10;;
21175;SDS011;10746;50.178;8.186;2022-10-04T13:42:36;9.77;;;4.28;;
21175;SDS011;10746;50.178;8.186;2022-10-04T13:45:22;9.27;;;4.22;;
21175;SDS011;10746;50.178;8.186;2022-10-04T13:48:05;7.10;;;4.25;;
21175;SDS011;10746;50.178;8.186;2022-10-04T13:50:46;9.95;;;3.97;;
21175;SDS011;10746;50.178;8.186;2022-10-04T13:53:29;6.07;;;3.95;;
21175;SDS011;10746;50.178;8.186;2022-10-04T13:56:36;9.63;;;3.55;;
21175;SDS011;10746;50.178;8.186;2022-10-04T13:59:26;8.25;;;4.32;;
21175;SDS011;10746;50.178;8.186;2022-10-04T14:02:03;7.90;;;3.83;;
21175;SDS011;10746;50.178;8.186;2022-10-04T14:11:06;7.68;;;3.58;;
21175;SDS011;10746;50.178;8.186;2022-10-04T14:14:16;5.03;;;3.55;;
21175;SDS011;10746;50.178;8.186;2022-10-04T14:17:12;5.38;;;3.80;;
21175;SDS011;10746;50.178;8.186;2022-10-04T14:20:10;9.02;;;3.80;;
21175;SDS011;10746;50.178;8.186;2022-10-04T14:23:07;8.15;;;3.70;;
21175;SDS011;10746;50.178;8.186;2022-10-04T14:25:55;7.88;;;3.60;;
21175;SDS011;10746;50.178;8.186;2022-10-04T14:32:03;8.15;;;3.88;;
21175;SDS011;10746;50.178;8.186;2022-10-04T14:34:49;6.78;;;3.30;;
21175;SDS011;10746;50.178;8.186;2022-10-04T14:40:44;5.60;;;3.70;;
21175;SDS011;10746;50.178;8.186;2022-10-04T14:47:12;6.25;;;3.25;;
21175;SDS011;10746;50.178;8.186;2022-10-04T14:49:57;10.13;;;3.90;;
21175;SDS011;10746;50.178;8.186;2022-10-04T14:52:38;6.90;;;4.00;;
21175;SDS011;10746;50.178;8.186;2022-10-04T14:55:21;6.22;;;4.13;;
21175;SDS011;10746;50.178;8.186;2022-10-04T14:58:04;8.52;;;3.95;;
21175;SDS011;10746;50.178;8.186;2022-10-04T15:00:54;6.93;;;4.68;;
21175;SDS011;10746;50.178;8.186;2022-10-04T15:03:31;7.60;;;4.30;;
21175;SDS011;10746;50.178;8.186;2022-10-04T15:06:08;9.20;;;4.28;;
21175;SDS011;10746;50.178;8.186;2022-10-04T15:11:46;13.30;;;4.40;;
21175;SDS011;10746;50.178;8.186;2022-10-04T15:17:07;13.32;;;4.15;;
21175;SDS011;10746;50.178;8.186;2022-10-04T15:19:43;9.48;;;4.45;;
21175;SDS011;10746;50.178;8.186;2022-10-04T15:22:25;10.15;;;4.50;;
21175;SDS011;10746;50.178;8.186;2022-10-04T15:24:57;11.20;;;4.63;;
21175;SDS011;10746;50.178;8.186;2022-10-04T15:27:34;12.38;;;4.35;;
21175;SDS011;10746;50.178;8.186;2022-10-04T15:33:19;7.72;;;4.47;;
21175;SDS011;10746;50.178;8.186;2022-10-04T15:36:08;8.65;;;4.20;;
21175;SDS011;10746;50.178;8.186;2022-10-04T15:39:05;8.00;;;4.65;;
21175;SDS011;10746;50.178;8.186;2022-10-04T15:41:50;14.40;;;5.07;;
21175;SDS011;10746;50.178;8.186;2022-10-04T15:44:30;8.93;;;4.88;;
21175;SDS011;10746;50.178;8.186;2022-10-04T15:47:10;8.38;;;4.30;;
21175;SDS011;10746;50.178;8.186;2022-10-04T15:49:51;10.55;;;5.07;;
21175;SDS011;10746;50.178;8.186;2022-10-04T15:55:30;10.57;;;5.00;;
21175;SDS011;10746;50.178;8.186;2022-10-04T15:58:27;8.80;;;5.35;;
21175;SDS011;10746;50.178;8.186;2022-10-04T16:01:05;12.15;;;5.60;;
21175;SDS011;10746;50.178;8.186;2022-10-04T16:03:53;8.43;;;5.18;;
21175;SDS011;10746;50.178;8.186;2022-10-04T16:06:42;8.38;;;5.70;;
21175;SDS011;10746;50.178;8.186;2022-10-04T16:09:17;9.93;;;5.85;;
21175;SDS011;10746;50.178;8.186;2022-10-04T16:11:55;11.10;;;5.90;;
21175;SDS011;10746;50.178;8.186;2022-10-04T16:14:44;14.32;;;7.05;;
21175;SDS011;10746;50.178;8.186;2022-10-04T16:17:27;11.45;;;6.47;;
21175;SDS011;10746;50.178;8.186;2022-10-04T16:20:26;10.73;;;6.22;;
21175;SDS011;10746;50.178;8.186;2022-10-04T16:23:23;18.05;;;7.20;;
21175;SDS011;10746;50.178;8.186;2022-10-04T16:25:58;19.48;;;7.97;;
21175;SDS011;10746;50.178;8.186;2022-10-04T16:28:34;10.82;;;7.07;;
21175;SDS011;10746;50.178;8.186;2022-10-04T16:34:16;17.33;;;7.90;;
21175;SDS011;10746;50.178;8.186;2022-10-04T16:37:19;14.15;;;7.45;;
21175;SDS011;10746;50.178;8.186;2022-10-04T16:39:54;14.65;;;8.35;;
21175;SDS011;10746;50.178;8.186;2022-10-04T16:42:29;14.10;;;7.63;;
21175;SDS011;10746;50.178;8.186;2022-10-04T16:48:11;15.18;;;8.07;;
21175;SDS011;10746;50.178;8.186;2022-10-04T16:50:55;14.30;;;8.52;;
21175;SDS011;10746;50.178;8.186;2022-10-04T16:53:41;16.02;;;7.45;;
21175;SDS011;10746;50.178;8.186;2022-10-04T16:56:17;14.98;;;8.27;;
21175;SDS011;10746;50.178;8.186;2022-10-04T16:58:51;14.02;;;8.23;;
21175;SDS011;10746;50.178;8.186;2022-10-04T17:07:42;12.80;;;7.85;;
21175;SDS011;10746;50.178;8.186;2022-10-04T17:10:29;15.02;;;8.38;;
21175;SDS011;10746;50.178;8.186;2022-10-04T17:13:05;19.88;;;8.95;;
21175;SDS011;10746;50.178;8.186;2022-10-04T17:15:45;16.20;;;9.52;;
21175;SDS011;10746;50.178;8.186;2022-10-04T17:18:18;18.25;;;10.35;;
21175;SDS011;10746;50.178;8.186;2022-10-04T17:20:53;16.40;;;9.32;;
21175;SDS011;10746;50.178;8.186;2022-10-04T17:26:41;18.02;;;9.65;;
21175;SDS011;10746;50.178;8.186;2022-10-04T17:29:21;18.63;;;9.32;;
21175;SDS011;10746;50.178;8.186;2022-10-04T17:32:02;19.88;;;10.65;;
21175;SDS011;10746;50.178;8.186;2022-10-04T17:34:35;20.92;;;10.20;;
21175;SDS011;10746;50.178;8.186;2022-10-04T17:37:14;16.85;;;9.40;;
21175;SDS011;10746;50.178;8.186;2022-10-04T17:39:50;18.35;;;9.73;;
21175;SDS011;10746;50.178;8.186;2022-10-04T17:42:27;20.75;;;9.82;;
21175;SDS011;10746;50.178;8.186;2022-10-04T17:45:13;23.23;;;9.55;;